Fort Blackmore, VA (24250)

10:35 AM EDT on April 19, 2015 (GMT -0400)
west carters valley | | Change Station
CLOSE
Current Station
Personal Weather Station
Location: Church Hill, TN
Elevation: 1453 ft
Nearby Weather Stations

Elev 1453 ft 36.57 °N, 82.69 °W | Updated 3 minutes ago

Rain
Rain
64.8 °F
Feels Like 64.8 °F
N
3.8
Wind Variable Wind from NE

Today
High -- | Low -- °F
--% Chance of Precip.
Yesterday
High -- | Low -- °F
Precip. -- in
6:51 AM 8:08 PM
New Moon, 1% visible
Pressure 29.91 in
Visibility 10.0 miles
Clouds Scattered Clouds 3900 ft
Mostly Cloudy 5000 ft
Overcast 9500 ft
Dew Point 61 °F
Humidity 89%
Rainfall 0.00 in
Snow Depth Not available.
UV 2 out of 12
Pollen 2.50 out of 12
Air Quality Not available.
Flu Activity Local Activity
METAR KLNP 191415Z AUTO 14004KT 10SM -DZ SCT039 BKN050 OVC095 16/13 A2991 RMK AO2

More Conditions Fewer Conditions

Pressure 29.91 in
Visibility 10.0 miles
Clouds Scattered Clouds 3900 ft
Mostly Cloudy 5000 ft
Overcast 9500 ft
Dew Point 61 °F
Humidity 89%
Rainfall 0.00 in
Snow Depth Not available.
UV 2 out of 12
Pollen 2.50 out of 12
Air Quality Not available.
Flu Activity Local Activity
METAR KLNP 191415Z AUTO 14004KT 10SM -DZ SCT039 BKN050 OVC095 16/13 A2991 RMK AO2

More Conditions Fewer Conditions

10-Day Weather Forecast

Almanac

Astronomy

Apr. 19, 2015 Rise Set
Actual Time
Civil Twilight
Nautical Twilight
Astronomical Twilight
Moon
Length of Visible Light
Length of Day
Tomorrow will be .
, % of the Moon is Illuminated

Today's Extremes

State Highs State Lows

Community

WunderPhotos

Upload Photos

1,814,824 photos uploaded!

WunderBlogs® & News

Nearby

Air Quality

  Air Quality AQ Index Pollutant
Not available.

Snow Depth

Station Depth Elevation

Earthquake Activity

City Distance Mag. Time & Date
Minimum magnitude displayed is 2.5.

Coastal Water Temperatures

Place Temperature

Stations

Nearby Weather Stations

Station Location Temp. Windchill Dew Point Humidity Wind Precip. Elev Updated Type